createdAt,value
2018-12-06T00:02:00.154Z,9.27
2018-12-06T00:04:27.577Z,12.58
2018-12-06T00:06:55.054Z,12.83
2018-12-06T00:09:22.462Z,12.80
2018-12-06T00:11:50.104Z,7.27
2018-12-06T00:14:17.543Z,9.00
2018-12-06T00:16:48.766Z,10.43
2018-12-06T00:19:16.161Z,8.43
2018-12-06T00:21:43.553Z,8.87
2018-12-06T00:24:10.973Z,9.33
2018-12-06T00:26:38.390Z,11.10
2018-12-06T00:29:05.791Z,8.70
2018-12-06T00:31:33.286Z,11.00
2018-12-06T00:34:00.697Z,14.43
2018-12-06T00:36:28.098Z,10.80
2018-12-06T00:38:55.497Z,11.35
2018-12-06T00:41:22.918Z,10.17
2018-12-06T00:43:50.318Z,10.90
2018-12-06T00:46:17.762Z,15.23
2018-12-06T00:48:45.173Z,10.60
2018-12-06T00:51:12.582Z,11.83
2018-12-06T00:53:39.981Z,7.97
2018-12-06T00:56:07.381Z,11.40
2018-12-06T00:58:34.785Z,8.00
2018-12-06T01:01:02.187Z,12.17
2018-12-06T01:03:29.618Z,13.03
2018-12-06T01:05:57.041Z,13.43
2018-12-06T01:08:24.480Z,8.43
2018-12-06T01:10:51.979Z,10.77
2018-12-06T01:13:19.398Z,10.10
2018-12-06T01:15:46.828Z,14.95
2018-12-06T01:18:14.248Z,9.90
2018-12-06T01:20:41.757Z,9.47
2018-12-06T01:23:09.198Z,13.13
2018-12-06T01:25:36.602Z,7.33
2018-12-06T01:28:04.030Z,14.15
2018-12-06T01:30:31.433Z,9.40
2018-12-06T01:32:58.885Z,13.25
2018-12-06T01:35:26.306Z,16.20
2018-12-06T01:37:53.722Z,11.37
2018-12-06T01:40:21.126Z,13.72
2018-12-06T01:42:48.538Z,12.50
2018-12-06T01:45:15.957Z,15.95
2018-12-06T01:47:43.353Z,13.58
2018-12-06T01:50:10.778Z,10.32
2018-12-06T01:52:38.187Z,11.55
2018-12-06T01:55:05.633Z,12.83
2018-12-06T01:57:33.034Z,7.80
2018-12-06T02:00:00.442Z,13.83
2018-12-06T02:02:27.838Z,30.40
2018-12-06T02:04:55.277Z,11.10
2018-12-06T02:07:22.761Z,9.93
2018-12-06T02:09:50.180Z,13.83
2018-12-06T02:12:17.610Z,10.77
2018-12-06T02:14:45.033Z,15.50
2018-12-06T02:17:12.483Z,14.20
2018-12-06T02:19:39.882Z,15.60
2018-12-06T02:22:07.333Z,11.43
2018-12-06T02:24:34.760Z,12.15
2018-12-06T02:27:02.161Z,11.47
2018-12-06T02:29:31.511Z,11.10
2018-12-06T02:31:58.922Z,9.73
2018-12-06T02:34:26.336Z,11.25
2018-12-06T02:36:53.757Z,9.30
2018-12-06T02:39:21.151Z,10.10
2018-12-06T02:41:48.550Z,12.27
2018-12-06T02:44:15.978Z,11.70
2018-12-06T02:46:43.415Z,8.90
2018-12-06T02:49:10.842Z,10.93
2018-12-06T02:51:38.249Z,15.70
2018-12-06T02:54:05.663Z,9.13
2018-12-06T02:56:33.069Z,9.70
2018-12-06T02:59:00.555Z,7.93
2018-12-06T03:01:27.974Z,13.32
2018-12-06T03:03:55.399Z,12.67
2018-12-06T03:06:22.799Z,11.90
2018-12-06T03:08:50.210Z,8.57
2018-12-06T03:11:17.618Z,9.77
2018-12-06T03:13:45.034Z,17.17
2018-12-06T03:16:12.444Z,10.87
2018-12-06T03:18:39.850Z,9.93
2018-12-06T03:21:07.262Z,12.57
2018-12-06T03:23:34.675Z,12.83
2018-12-06T03:26:02.088Z,9.95
2018-12-06T03:28:29.507Z,8.73
2018-12-06T03:30:56.944Z,9.23
2018-12-06T03:33:24.455Z,10.70
2018-12-06T03:35:51.876Z,12.00
2018-12-06T03:38:19.366Z,9.30
2018-12-06T03:40:46.793Z,11.83
2018-12-06T03:43:14.214Z,11.60
2018-12-06T03:45:41.641Z,11.93
2018-12-06T03:48:09.045Z,14.57
2018-12-06T03:50:36.466Z,18.00
2018-12-06T03:53:03.914Z,15.03
2018-12-06T03:55:31.341Z,16.27
2018-12-06T03:57:58.765Z,13.93
2018-12-06T04:00:26.184Z,14.70
2018-12-06T04:02:53.597Z,14.83
2018-12-06T04:05:21.199Z,17.42
2018-12-06T04:07:48.706Z,13.40
2018-12-06T04:10:16.280Z,18.97
2018-12-06T04:12:43.722Z,17.67
2018-12-06T04:15:11.134Z,17.02
2018-12-06T04:17:38.659Z,19.40
2018-12-06T04:20:06.090Z,16.60
2018-12-06T04:22:33.524Z,18.07
2018-12-06T04:25:00.929Z,16.33
2018-12-06T04:27:28.338Z,22.23
2018-12-06T04:29:55.757Z,20.70
2018-12-06T04:32:23.175Z,20.30
2018-12-06T04:34:50.593Z,22.73
2018-12-06T04:37:17.994Z,22.10
2018-12-06T04:39:45.512Z,16.02
2018-12-06T04:42:12.938Z,21.10
2018-12-06T04:44:40.377Z,22.83
2018-12-06T04:47:07.809Z,21.17
2018-12-06T04:49:35.216Z,27.83
2018-12-06T04:52:02.667Z,24.10
2018-12-06T04:54:30.170Z,21.65
2018-12-06T04:56:57.581Z,20.87
2018-12-06T04:59:24.983Z,20.40
2018-12-06T05:01:52.387Z,24.10
2018-12-06T05:04:19.809Z,27.13
2018-12-06T05:06:47.229Z,18.90
2018-12-06T05:09:14.667Z,21.17
2018-12-06T05:11:42.167Z,24.37
2018-12-06T05:14:09.591Z,21.30
2018-12-06T05:16:37.022Z,23.12
2018-12-06T05:19:04.451Z,22.97
2018-12-06T05:21:31.872Z,24.67
2018-12-06T05:23:59.276Z,23.30
2018-12-06T05:26:26.730Z,20.53
2018-12-06T05:28:54.137Z,21.83
2018-12-06T05:31:21.561Z,24.05
2018-12-06T05:33:49.017Z,23.05
2018-12-06T05:36:16.445Z,22.23
2018-12-06T05:38:43.857Z,24.37
2018-12-06T05:41:11.283Z,28.27
2018-12-06T05:43:39.796Z,28.60
2018-12-06T05:46:07.365Z,23.80
2018-12-06T05:48:34.788Z,25.43
2018-12-06T05:51:02.199Z,32.83
2018-12-06T05:53:29.596Z,25.63
2018-12-06T05:55:57.027Z,23.70
2018-12-06T05:58:24.430Z,24.73
2018-12-06T06:00:51.873Z,35.60
2018-12-06T06:03:19.301Z,31.37
2018-12-06T06:05:46.728Z,26.10
2018-12-06T06:08:14.129Z,28.57
2018-12-06T06:10:41.540Z,25.60
2018-12-06T06:13:08.962Z,30.67
2018-12-06T06:15:36.393Z,31.10
2018-12-06T06:18:03.813Z,25.33
2018-12-06T06:20:31.213Z,26.87
2018-12-06T06:22:58.633Z,23.70
2018-12-06T06:25:26.042Z,28.52
2018-12-06T06:27:53.445Z,24.27
2018-12-06T06:30:20.845Z,22.73
2018-12-06T06:32:48.245Z,26.27
2018-12-06T06:35:15.659Z,25.97
2018-12-06T06:37:43.381Z,26.62
2018-12-06T06:40:10.834Z,24.67
2018-12-06T06:42:38.249Z,21.80
2018-12-06T06:45:05.671Z,30.77
2018-12-06T06:47:33.129Z,23.95
2018-12-06T06:50:00.534Z,21.75
2018-12-06T06:52:27.961Z,24.90
2018-12-06T06:54:55.373Z,26.50
2018-12-06T06:57:22.785Z,28.70
2018-12-06T06:59:50.205Z,37.30
2018-12-06T07:02:17.651Z,27.82
2018-12-06T07:04:45.058Z,30.00
2018-12-06T07:07:12.482Z,25.30
2018-12-06T07:09:39.885Z,27.17
2018-12-06T07:12:07.309Z,28.60
2018-12-06T07:14:34.713Z,25.63
2018-12-06T07:17:02.169Z,27.13
2018-12-06T07:19:29.586Z,28.90
2018-12-06T07:21:56.988Z,28.73
2018-12-06T07:24:24.399Z,32.43
2018-12-06T07:26:51.839Z,30.93
2018-12-06T07:29:19.236Z,32.40
2018-12-06T07:31:46.665Z,32.87
2018-12-06T07:34:14.097Z,37.30
2018-12-06T07:36:41.629Z,35.95
2018-12-06T07:39:09.052Z,34.97
2018-12-06T07:41:36.481Z,27.60
2018-12-06T07:44:03.921Z,38.27
2018-12-06T07:46:31.361Z,35.23
2018-12-06T07:48:58.789Z,42.67
2018-12-06T07:51:26.196Z,37.45
2018-12-06T07:53:53.638Z,36.38
2018-12-06T07:56:21.058Z,34.30
2018-12-06T07:58:48.520Z,40.10
2018-12-06T08:01:15.941Z,33.30
2018-12-06T08:03:43.369Z,33.60
2018-12-06T08:06:10.787Z,41.33
2018-12-06T08:08:38.297Z,47.17
2018-12-06T08:11:05.717Z,38.13
2018-12-06T08:13:33.165Z,40.03
2018-12-06T08:16:00.590Z,43.33
2018-12-06T08:18:28.001Z,40.50
2018-12-06T08:20:55.404Z,44.17
2018-12-06T08:23:22.811Z,45.83
2018-12-06T08:25:50.213Z,49.85
2018-12-06T08:28:17.649Z,51.73
2018-12-06T08:30:45.074Z,58.83
2018-12-06T08:33:12.483Z,43.30
2018-12-06T08:35:41.465Z,48.77
2018-12-06T08:38:12.290Z,48.67
2018-12-06T08:40:39.893Z,43.30
2018-12-06T08:43:07.316Z,50.30
2018-12-06T08:45:34.764Z,52.33
2018-12-06T08:48:02.188Z,48.97
2018-12-06T08:50:29.690Z,50.80
2018-12-06T08:52:57.104Z,49.30
2018-12-06T08:55:24.546Z,56.83
2018-12-06T08:57:52.006Z,51.88
2018-12-06T09:00:19.439Z,59.50
2018-12-06T09:02:46.864Z,56.33
2018-12-06T09:05:14.282Z,55.47
2018-12-06T09:07:41.701Z,60.52
2018-12-06T09:10:10.009Z,47.75
2018-12-06T09:12:38.165Z,57.62
2018-12-06T09:15:06.504Z,64.90
2018-12-06T09:17:33.956Z,61.23
2018-12-06T09:20:01.368Z,56.80
2018-12-06T09:22:28.874Z,58.13
2018-12-06T09:24:56.405Z,64.77
2018-12-06T09:27:23.813Z,56.87
2018-12-06T09:29:51.246Z,67.37
2018-12-06T09:32:18.655Z,63.00
2018-12-06T09:34:46.073Z,65.93
2018-12-06T09:37:13.493Z,59.20
2018-12-06T09:39:40.933Z,57.30
2018-12-06T09:42:08.389Z,70.80
2018-12-06T09:44:35.798Z,71.80
2018-12-06T09:47:03.221Z,66.90
2018-12-06T09:49:30.646Z,61.65
2018-12-06T09:51:58.086Z,63.63
2018-12-06T09:54:25.596Z,66.60
2018-12-06T09:56:52.986Z,74.17
2018-12-06T09:59:20.526Z,69.50
2018-12-06T10:01:47.962Z,64.40
2018-12-06T10:04:15.474Z,75.00
2018-12-06T10:06:42.869Z,72.37
2018-12-06T10:09:10.276Z,75.93
2018-12-06T10:11:37.690Z,76.03
2018-12-06T10:14:05.111Z,90.13
2018-12-06T10:16:32.525Z,74.90
2018-12-06T10:18:59.953Z,84.00
2018-12-06T10:21:27.372Z,85.07
2018-12-06T10:23:54.775Z,84.13
2018-12-06T10:26:22.196Z,88.73
2018-12-06T10:28:49.597Z,83.40
2018-12-06T10:31:17.021Z,86.37
2018-12-06T10:33:44.648Z,100.30
2018-12-06T10:36:12.078Z,110.53
2018-12-06T10:38:39.501Z,89.90
2018-12-06T10:41:06.909Z,94.70
2018-12-06T10:43:34.320Z,114.10
2018-12-06T10:46:01.763Z,98.27
2018-12-06T10:48:29.172Z,100.50
2018-12-06T10:55:07.720Z,115.57
2018-12-06T10:57:36.745Z,110.60
2018-12-06T11:00:06.706Z,115.47
2018-12-06T11:02:51.877Z,111.70
2018-12-06T11:05:19.412Z,114.70
2018-12-06T11:07:46.796Z,130.80
2018-12-06T11:10:14.208Z,124.27
2018-12-06T11:12:41.617Z,131.43
2018-12-06T11:15:09.178Z,126.87
2018-12-06T11:17:36.589Z,133.95
2018-12-06T11:20:04.737Z,127.10
2018-12-06T11:22:32.144Z,147.37
2018-12-06T11:24:59.561Z,147.90
2018-12-06T11:27:27.001Z,141.80
2018-12-06T11:29:54.424Z,143.62
2018-12-06T11:32:21.839Z,117.70
2018-12-06T11:34:49.248Z,141.73
2018-12-06T11:37:16.676Z,131.03
2018-12-06T11:39:44.181Z,109.80
2018-12-06T11:42:11.586Z,127.30
2018-12-06T11:44:39.001Z,124.50
2018-12-06T11:47:06.406Z,136.97
2018-12-06T11:49:35.390Z,126.27
2018-12-06T11:52:02.810Z,122.23
2018-12-06T11:54:30.233Z,136.40
2018-12-06T11:56:58.386Z,127.80
2018-12-06T11:59:26.222Z,142.10
2018-12-06T12:01:53.633Z,153.45
2018-12-06T12:04:21.050Z,132.60
2018-12-06T12:06:48.465Z,130.83
2018-12-06T12:09:16.230Z,128.85
2018-12-06T12:11:44.441Z,127.82
2018-12-06T12:14:11.868Z,115.77
2018-12-06T12:16:39.323Z,124.18
2018-12-06T12:19:06.817Z,125.53
2018-12-06T12:21:34.245Z,122.63
2018-12-06T12:24:01.669Z,129.60
2018-12-06T12:26:29.089Z,121.73
2018-12-06T12:28:57.417Z,116.03
2018-12-06T12:31:24.877Z,118.40
2018-12-06T12:33:52.521Z,105.50
2018-12-06T12:36:19.949Z,115.52
2018-12-06T12:38:47.356Z,109.07
2018-12-06T12:41:14.775Z,99.97
2018-12-06T12:43:43.128Z,101.20
2018-12-06T12:46:10.536Z,115.73
2018-12-06T12:48:37.961Z,103.90
2018-12-06T12:51:05.357Z,100.20
2018-12-06T12:53:32.998Z,113.77
2018-12-06T12:56:00.425Z,111.13
2018-12-06T12:58:27.893Z,114.60
2018-12-06T13:00:55.294Z,104.20
2018-12-06T13:03:22.738Z,113.43
2018-12-06T13:05:50.152Z,109.25
2018-12-06T13:08:17.577Z,116.87
2018-12-06T13:10:45.076Z,105.27
2018-12-06T13:13:12.492Z,108.00
2018-12-06T13:15:39.933Z,105.52
2018-12-06T13:18:07.354Z,105.43
2018-12-06T13:20:34.772Z,103.27
2018-12-06T13:23:02.181Z,112.50
2018-12-06T13:25:29.595Z,105.07
2018-12-06T13:27:57.000Z,93.63
2018-12-06T13:30:24.549Z,102.57
2018-12-06T13:32:51.996Z,101.70
2018-12-06T13:35:19.431Z,104.93
2018-12-06T13:37:46.829Z,96.00
2018-12-06T13:40:14.959Z,112.90
2018-12-06T13:42:42.397Z,106.63
2018-12-06T13:45:09.878Z,122.62
2018-12-06T13:47:38.855Z,115.77
2018-12-06T13:50:06.500Z,112.77
2018-12-06T13:52:34.013Z,104.90
2018-12-06T13:55:01.426Z,125.57
2018-12-06T13:57:28.837Z,116.50
2018-12-06T13:59:56.249Z,137.23
2018-12-06T14:02:23.689Z,119.70
2018-12-06T14:04:51.097Z,130.43
2018-12-06T14:07:18.501Z,120.90
2018-12-06T14:09:45.930Z,126.33
2018-12-06T14:12:13.364Z,130.63
2018-12-06T14:14:40.774Z,139.20
2018-12-06T14:17:08.185Z,133.97
2018-12-06T14:19:36.520Z,138.93
2018-12-06T14:22:03.949Z,144.07
2018-12-06T14:24:31.394Z,129.60
2018-12-06T14:26:58.814Z,144.07
2018-12-06T14:29:26.264Z,138.40
2018-12-06T14:31:53.681Z,137.35
2018-12-06T14:34:21.123Z,132.82
2018-12-06T14:37:01.479Z,146.07
2018-12-06T14:39:17.925Z,125.07
2018-12-06T14:41:45.337Z,132.37
2018-12-06T14:44:12.759Z,149.80
2018-12-06T14:46:40.222Z,142.23
2018-12-06T14:49:07.744Z,144.05
2018-12-06T14:51:35.201Z,131.47
2018-12-06T14:54:03.626Z,140.60
2018-12-06T14:56:31.132Z,143.10
2018-12-06T14:58:58.537Z,145.17
2018-12-06T15:01:25.980Z,152.07
2018-12-06T15:03:53.413Z,154.23
2018-12-06T15:06:20.838Z,148.93
2018-12-06T15:08:48.823Z,149.97
2018-12-06T15:11:16.264Z,175.45
2018-12-06T15:13:43.669Z,153.80
2018-12-06T15:16:11.189Z,179.77
2018-12-06T15:18:40.074Z,160.53
2018-12-06T15:21:07.536Z,168.40
2018-12-06T15:23:36.524Z,164.50
2018-12-06T15:26:03.966Z,149.97
2018-12-06T15:28:31.363Z,146.35
2018-12-06T15:30:58.817Z,154.20
2018-12-06T15:33:26.301Z,153.10
2018-12-06T15:35:53.742Z,172.35
2018-12-06T15:38:21.162Z,174.62
2018-12-06T15:40:48.623Z,141.18
2018-12-06T15:43:16.033Z,154.30
2018-12-06T15:45:43.463Z,155.57
2018-12-06T15:48:10.881Z,162.70
2018-12-06T15:50:38.289Z,150.87
2018-12-06T15:53:05.721Z,154.43
2018-12-06T15:55:33.117Z,151.90
2018-12-06T15:58:00.547Z,142.57
2018-12-06T16:00:27.954Z,151.63
2018-12-06T16:02:55.369Z,149.55
2018-12-06T16:05:22.805Z,171.53
2018-12-06T16:07:50.225Z,145.33
2018-12-06T16:10:17.633Z,154.95
2018-12-06T16:12:45.041Z,140.73
2018-12-06T16:15:12.481Z,143.27
2018-12-06T16:17:39.918Z,129.42
2018-12-06T16:20:08.177Z,139.73
2018-12-06T16:22:35.600Z,133.23
2018-12-06T16:25:03.056Z,123.57
2018-12-06T16:27:30.493Z,111.60
2018-12-06T16:29:57.949Z,105.17
2018-12-06T16:32:25.385Z,98.30
2018-12-06T16:34:52.821Z,106.67
2018-12-06T16:37:20.221Z,96.30
2018-12-06T16:39:47.655Z,105.37
2018-12-06T16:42:15.057Z,95.43
2018-12-06T16:44:42.539Z,103.43
2018-12-06T16:47:09.959Z,95.80
2018-12-06T16:49:37.463Z,92.80
2018-12-06T16:52:06.929Z,94.90
2018-12-06T16:54:34.381Z,97.95
2018-12-06T16:57:01.802Z,104.97
2018-12-06T16:59:29.205Z,85.75
2018-12-06T17:01:56.617Z,98.05
2018-12-06T17:04:24.040Z,91.17
2018-12-06T17:06:51.503Z,100.67
2018-12-06T17:09:18.894Z,82.45
2018-12-06T17:11:46.292Z,90.03
2018-12-06T17:14:13.711Z,77.47
2018-12-06T17:16:41.108Z,75.37
2018-12-06T17:19:08.541Z,78.70
2018-12-06T17:21:35.989Z,83.73
2018-12-06T17:24:03.437Z,86.77
2018-12-06T17:26:30.857Z,79.37
2018-12-06T17:28:58.277Z,88.13
2018-12-06T17:31:25.709Z,84.42
2018-12-06T17:33:53.141Z,85.83
2018-12-06T17:36:20.590Z,86.60
2018-12-06T17:38:48.025Z,74.40
2018-12-06T17:41:15.429Z,81.03
2018-12-06T17:43:42.924Z,80.97
2018-12-06T17:46:10.329Z,79.03
2018-12-06T17:48:37.741Z,73.33
2018-12-06T17:51:05.149Z,69.10
2018-12-06T17:53:32.552Z,67.93
2018-12-06T17:56:00.569Z,62.57
2018-12-06T17:58:27.974Z,61.80
2018-12-06T18:00:55.401Z,62.40
2018-12-06T18:03:22.809Z,50.97
2018-12-06T18:05:50.233Z,53.48
2018-12-06T18:08:17.647Z,48.93
2018-12-06T18:10:45.646Z,66.00
2018-12-06T18:13:13.073Z,46.27
2018-12-06T18:15:40.571Z,47.37
2018-12-06T18:18:08.045Z,55.77
2018-12-06T18:20:35.481Z,45.10
2018-12-06T18:23:02.905Z,51.02
2018-12-06T18:25:30.313Z,51.70
2018-12-06T18:27:57.760Z,50.50
2018-12-06T18:30:25.217Z,55.50
2018-12-06T18:32:52.624Z,50.73
2018-12-06T18:35:20.053Z,56.20
2018-12-06T18:37:47.491Z,61.10
2018-12-06T18:40:15.029Z,57.30
2018-12-06T18:42:42.416Z,59.33
2018-12-06T18:45:09.876Z,63.65
2018-12-06T18:47:37.289Z,69.93
2018-12-06T18:50:04.743Z,67.10
2018-12-06T18:52:32.158Z,63.63
2018-12-06T18:54:59.572Z,78.87
2018-12-06T18:57:27.006Z,68.43
2018-12-06T18:59:54.477Z,74.37
2018-12-06T19:02:21.889Z,72.12
2018-12-06T19:04:49.305Z,69.70
2018-12-06T19:07:16.713Z,71.43
2018-12-06T19:09:44.123Z,68.85
2018-12-06T19:12:11.537Z,65.67
2018-12-06T19:14:39.001Z,68.70
2018-12-06T19:17:06.440Z,65.55
2018-12-06T19:19:33.937Z,62.20
2018-12-06T19:22:01.364Z,66.67
2018-12-06T19:24:28.808Z,65.17
2018-12-06T19:26:56.222Z,64.15
2018-12-06T19:29:23.672Z,70.35
2018-12-06T19:31:51.122Z,72.12
2018-12-06T19:34:18.577Z,71.40
2018-12-06T19:36:46.001Z,75.40
2018-12-06T19:39:13.429Z,68.75
2018-12-06T19:41:40.868Z,68.92
2018-12-06T19:44:08.390Z,66.63
2018-12-06T19:46:35.821Z,67.97
2018-12-06T19:49:06.063Z,63.23
2018-12-06T19:51:33.486Z,69.97
2018-12-06T19:54:00.989Z,80.67
2018-12-06T19:56:28.429Z,79.72
2018-12-06T19:58:55.869Z,85.77
2018-12-06T20:01:23.314Z,83.50
2018-12-06T20:03:50.765Z,84.77
2018-12-06T20:06:18.195Z,85.22
2018-12-06T20:08:45.622Z,75.53
2018-12-06T20:11:13.055Z,68.47
2018-12-06T20:13:41.386Z,72.60
2018-12-06T20:16:08.794Z,61.90
2018-12-06T20:18:36.241Z,65.60
2018-12-06T20:21:03.721Z,61.80
2018-12-06T20:23:31.145Z,61.68
2018-12-06T20:25:58.566Z,62.60
2018-12-06T20:28:26.648Z,60.80
2018-12-06T20:30:54.384Z,55.63
2018-12-06T20:33:21.805Z,55.47
2018-12-06T20:35:49.245Z,58.97
2018-12-06T20:38:16.660Z,58.55
2018-12-06T20:40:44.064Z,67.40
2018-12-06T20:43:11.465Z,71.73
2018-12-06T20:45:40.439Z,70.20
2018-12-06T20:48:07.865Z,69.73
2018-12-06T20:50:35.305Z,79.25
2018-12-06T20:53:02.738Z,75.70
2018-12-06T20:55:30.161Z,69.70
2018-12-06T20:57:57.579Z,74.22
2018-12-06T21:00:25.009Z,72.00
2018-12-06T21:02:52.442Z,69.27
2018-12-06T21:05:19.890Z,69.87
2018-12-06T21:07:47.405Z,64.75
2018-12-06T21:10:14.821Z,68.93
2018-12-06T21:12:42.258Z,69.58
2018-12-06T21:15:09.858Z,66.57
2018-12-06T21:17:37.289Z,67.07
2018-12-06T21:20:05.454Z,71.13
2018-12-06T21:22:32.865Z,70.08
2018-12-06T21:25:00.300Z,72.67
2018-12-06T21:27:27.729Z,79.03
2018-12-06T21:29:55.151Z,70.17
2018-12-06T21:32:22.593Z,76.30
2018-12-06T21:34:50.010Z,77.40
2018-12-06T21:37:17.416Z,77.17
2018-12-06T21:39:44.839Z,89.67
2018-12-06T21:42:12.269Z,77.77
2018-12-06T21:44:39.713Z,88.07
2018-12-06T21:47:07.137Z,87.65
2018-12-06T21:49:35.477Z,85.30
2018-12-06T21:52:02.917Z,88.05
2018-12-06T21:54:30.325Z,88.40
2018-12-06T21:56:57.733Z,90.30
2018-12-06T21:59:25.162Z,88.22
2018-12-06T22:02:00.441Z,93.70
2018-12-06T22:04:27.900Z,95.47
2018-12-06T22:06:55.365Z,94.97
2018-12-06T22:09:22.822Z,105.75
2018-12-06T22:11:50.279Z,94.75
2018-12-06T22:14:17.752Z,79.93
2018-12-06T22:16:45.229Z,90.43
2018-12-06T22:19:12.713Z,86.70
2018-12-06T22:21:40.195Z,87.00
2018-12-06T22:24:07.800Z,87.37
2018-12-06T22:26:35.274Z,86.70
2018-12-06T22:29:02.750Z,95.80
2018-12-06T22:31:30.212Z,84.58
2018-12-06T22:33:57.693Z,91.17
2018-12-06T22:36:25.150Z,92.27
2018-12-06T22:38:52.610Z,76.60
2018-12-06T22:41:20.088Z,91.23
2018-12-06T22:43:47.560Z,88.82
2018-12-06T22:46:15.074Z,89.97
2018-12-06T22:48:42.563Z,90.28
2018-12-06T22:51:10.006Z,79.50
2018-12-06T22:53:38.389Z,81.60
2018-12-06T22:56:05.859Z,91.95
2018-12-06T22:58:33.402Z,78.87
2018-12-06T23:01:01.801Z,71.77
2018-12-06T23:03:29.291Z,80.05
2018-12-06T23:05:56.782Z,78.60
2018-12-06T23:08:24.259Z,75.37
2018-12-06T23:10:51.774Z,76.93
2018-12-06T23:13:19.262Z,72.37
2018-12-06T23:15:46.754Z,73.65
2018-12-06T23:18:14.244Z,82.03
2018-12-06T23:20:41.678Z,64.15
2018-12-06T23:23:09.129Z,75.92
2018-12-06T23:25:36.666Z,75.50
2018-12-06T23:28:04.109Z,74.00
2018-12-06T23:30:31.537Z,75.10
2018-12-06T23:32:58.980Z,67.20
2018-12-06T23:35:26.420Z,69.72
2018-12-06T23:37:53.877Z,62.37
2018-12-06T23:40:21.297Z,68.53
2018-12-06T23:42:48.746Z,66.33
2018-12-06T23:45:16.208Z,67.40
2018-12-06T23:47:43.652Z,71.57
2018-12-06T23:50:11.130Z,64.63
2018-12-06T23:52:38.590Z,66.77
2018-12-06T23:55:06.121Z,58.68
2018-12-06T23:57:33.565Z,61.02
